Sam, Kazakhstan
Current Conditions -  °F | °C
As of 7:00 AM on Saturday 22 Nov 2014 (Local Time) from UATG Reporting Station
Clear Clear  
Wind Chill:   Ceiling: Unl
Heat Index: 21°   Visibility: 6mi
Dew Point: 10°   Wind: 18mph
Humidity: 63%   Direction: 70°ENE
Pressure: 30.3"   Gusts: NA
Location:  45.4°N, 56.12°E
Report Text: UATG 220300Z 07008MPS CAVOK M06/M12 Q1026 R14/CLRD70 NOSIG RMKQFE772/1029
Loading
Personal Weather Stations






























Interactive Weather Map New forecast layout! Learn more

10-Day Weather Forecast

Advertisements
Track Severe Weather on mobile